Time;durP1;ratioP1;P1;durP2;ratioP2;P2;SDS_P1;SDS_P2;PMS_P1;PMS_P2;Temp;Humidity;BMP_temperature;BMP_pressure;BME280_temperature;BME280_humidity;BME280_pressure;Samples;Min_cycle;Max_cycle;Signal;HPM_P1;HPM_P2
2022/08/12 00:43:27;;;;;;;;;;;16.70;47.50;;;;;;5079258;28;20063;-52
2022/08/12 00:48:39;;;;;;;2.05;1.67;;;16.60;48.50;;;;;;5074444;28;20090;-50
2022/08/12 00:51:06;;;;;;;2.42;1.52;;;16.60;48.10;;;;;;5070048;28;20034;-53
2022/08/12 00:53:32;;;;;;;4.38;2.03;;;16.50;49.00;;;;;;5075342;28;20020;-50
2022/08/12 00:55:59;;;;;;;2.22;1.75;;;16.50;49.00;;;;;;5089352;28;20486;-53
2022/08/12 00:58:28;;;;;;;4.60;1.60;;;16.50;48.90;;;;;;5079196;28;20063;-50
2022/08/12 01:01:00;;;;;;;2.05;1.40;;;16.40;49.50;;;;;;5069645;28;20431;-51
2022/08/12 01:11:27;;;;;;;2.38;1.58;;;16.40;49.10;;;;;;5087138;28;20115;-54
2022/08/12 01:11:47;;;;;;;2.92;1.98;;;16.20;49.90;;;;;;5049986;28;20481;-50
2022/08/12 01:14:12;;;;;;;1.98;1.60;;;16.10;49.80;;;;;;5074524;28;20069;-51
2022/08/12 01:16:38;;;;;;;3.33;1.73;;;16.00;49.70;;;;;;5069916;28;20037;-50
2022/08/12 01:19:04;;;;;;;1.85;1.50;;;16.00;51.40;;;;;;5070496;28;20030;-50
2022/08/12 01:22:03;;;;;;;3.13;1.63;;;15.90;52.70;;;;;;5087422;28;20032;-51
2022/08/12 01:25:02;;;;;;;4.65;1.90;;;15.80;54.30;;;;;;5061942;28;20032;-48
2022/08/12 01:27:32;;;;;;;2.40;1.88;;;15.80;58.40;;;;;;5069778;28;20029;-47
2022/08/12 01:30:00;;;;;;;3.30;2.05;;;15.70;56.60;;;;;;5087497;28;20387;-47
2022/08/12 01:32:28;;;;;;;3.05;2.40;;;15.70;56.80;;;;;;5069585;28;20032;-53
2022/08/12 01:35:00;;;;;;;3.58;1.80;;;15.70;56.50;;;;;;5089318;28;20438;-49
2022/08/12 01:37:27;;;;;;;2.50;1.80;;;15.70;55.60;;;;;;5069506;28;20029;-47
2022/08/12 01:39:56;;;;;;;5.35;2.10;;;15.70;55.60;;;;;;5089388;28;20038;-51
2022/08/12 01:42:24;;;;;;;5.32;2.20;;;15.70;56.30;;;;;;5068304;28;20218;-54
2022/08/12 01:44:52;;;;;;;5.78;1.95;;;15.70;58.30;;;;;;5089471;28;20039;-52
2022/08/12 01:47:30;;;;;;;3.45;1.77;;;15.60;55.60;;;;;;5067636;28;20032;-51
2022/08/12 01:50:20;;;;;;;2.25;1.60;;;15.60;55.50;;;;;;5089315;28;20024;-47
2022/08/12 01:53:10;;;;;;;2.80;2.08;;;15.50;56.60;;;;;;5070580;28;20119;-50
2022/08/12 01:55:39;;;;;;;2.85;1.50;;;15.50;59.40;;;;;;5089328;28;20047;-47
2022/08/12 01:58:29;;;;;;;4.45;1.52;;;15.40;56.00;;;;;;5073779;28;20024;-51
2022/08/12 02:01:07;;;;;;;2.58;1.92;;;15.30;56.40;;;;;;5089346;28;20049;-51
2022/08/12 02:12:12;;;;;;;2.47;1.92;;;15.20;60.60;;;;;;5049135;28;20527;-53
2022/08/12 02:14:50;;;;;;;3.78;1.70;;;15.10;62.40;;;;;;5062997;28;20624;-52
2022/08/12 02:17:28;;;;;;;2.67;1.63;;;15.10;60.70;;;;;;5048732;28;20112;-53
2022/08/12 02:20:08;;;;;;;3.25;1.73;;;15.10;60.80;;;;;;5049109;28;20039;-52
2022/08/12 02:22:54;;;;;;;2.70;1.90;;;15.00;62.10;;;;;;5050312;28;20401;-51
2022/08/12 02:25:31;;;;;;;3.78;1.80;;;15.00;63.20;;;;;;5089046;28;20017;-50
2022/08/12 02:27:56;;;;;;;5.03;1.88;;;15.00;62.90;;;;;;5056340;28;20492;-49
2022/08/12 02:30:25;;;;;;;2.53;1.90;;;14.90;62.20;;;;;;5084786;28;20055;-52
2022/08/12 02:32:52;;;;;;;6.38;1.98;;;14.90;62.70;;;;;;5074385;28;20107;-53
2022/08/12 02:35:24;;;;;;;5.45;1.73;;;14.90;64.70;;;;;;5092650;28;20042;-49
2022/08/12 02:37:52;;;;;;;2.33;1.80;;;14.80;65.50;;;;;;5074078;28;20554;-54
2022/08/12 02:40:19;;;;;;;3.53;2.33;;;14.80;63.60;;;;;;5092611;28;20446;-53
2022/08/12 02:43:13;;;;;;;4.18;1.77;;;14.80;64.00;;;;;;5073306;28;20083;-50
2022/08/12 02:45:45;;;;;;;2.25;1.90;;;14.80;65.70;;;;;;5092765;28;20431;-56
2022/08/12 02:48:17;;;;;;;3.67;1.77;;;14.70;63.10;;;;;;5076239;28;20039;-59
2022/08/12 02:50:47;;;;;;;2.25;1.60;;;14.70;63.20;;;;;;5092343;28;20020;-59
2022/08/12 02:53:13;;;;;;;4.88;2.17;;;14.70;63.70;;;;;;5062952;28;20518;-59
2022/08/12 02:55:40;;;;;;;3.85;2.20;;;14.60;66.20;;;;;;5092221;28;20112;-57
2022/08/12 02:58:08;;;;;;;1.85;1.55;;;14.60;65.40;;;;;;5074346;28;20396;-58
2022/08/12 03:00:37;;;;;;;3.13;2.22;;;14.60;64.70;;;;;;5092256;28;20020;-57
2022/08/12 03:03:06;;;;;;;2.97;1.90;;;14.60;64.80;;;;;;5074366;28;20040;-59
2022/08/12 03:05:34;;;;;;;2.08;1.63;;;14.60;66.30;;;;;;5092305;28;20368;-59
2022/08/12 03:08:03;;;;;;;3.10;2.08;;;14.50;65.40;;;;;;5074165;28;20046;-60
2022/08/12 03:10:34;;;;;;;3.20;2.03;;;14.50;65.00;;;;;;5092129;28;20387;-58
2022/08/12 03:13:02;;;;;;;2.88;1.60;;;14.50;64.70;;;;;;5057393;28;20103;-58
2022/08/12 03:15:30;;;;;;;3.95;1.70;;;14.50;64.90;;;;;;5087171;28;20035;-58
2022/08/12 03:18:05;;;;;;;3.33;2.03;;;14.40;65.90;;;;;;5071827;28;20034;-56
2022/08/12 03:20:39;;;;;;;2.00;1.80;;;14.40;66.20;;;;;;5091838;28;20211;-59
2022/08/12 03:23:10;;;;;;;5.18;2.10;;;14.40;68.70;;;;;;5056976;28;20115;-59
2022/08/12 03:25:38;;;;;;;4.50;1.85;;;14.30;68.70;;;;;;5091987;28;20433;-58
2022/08/12 03:28:08;;;;;;;5.05;2.22;;;14.30;67.60;;;;;;5073751;28;20077;-58
2022/08/12 03:30:35;;;;;;;3.50;2.00;;;14.30;67.40;;;;;;5084790;28;20488;-58
2022/08/12 03:33:03;;;;;;;3.53;1.67;;;14.30;69.00;;;;;;5072808;28;20024;-58
2022/08/12 03:35:32;;;;;;;3.13;1.75;;;14.20;69.50;;;;;;5091528;28;20490;-59
2022/08/12 03:38:04;;;;;;;2.78;2.28;;;14.20;67.70;;;;;;5072319;28;20028;-59
2022/08/12 04:00:24;;;;;;;6.10;2.17;;;14.20;68.50;;;;;;5050860;28;20072;-57
2022/08/12 04:03:00;;;;;;;2.53;1.95;;;14.20;68.70;;;;;;5051182;28;20029;-57
2022/08/12 04:05:27;;;;;;;6.20;2.10;;;14.20;69.10;;;;;;5089708;28;20445;-57
2022/08/12 04:07:53;;;;;;;4.65;1.88;;;14.20;70.60;;;;;;5070639;28;20047;-59
2022/08/12 04:10:19;;;;;;;5.57;2.28;;;14.20;68.80;;;;;;5090893;28;20099;-58
2022/08/12 04:15:44;;;;;;;3.42;1.88;;;14.30;70.10;;;;;;5090884;28;20035;-59
2022/08/12 04:18:14;;;;;;;4.85;1.80;;;14.40;69.40;;;;;;5071921;28;20422;-58
2022/08/12 04:20:46;;;;;;;3.13;2.60;;;14.40;69.00;;;;;;5090796;28;20073;-59
2022/08/12 04:23:14;;;;;;;3.47;2.00;;;14.40;68.80;;;;;;5055658;28;20032;-57
2022/08/12 04:25:40;;;;;;;5.00;1.98;;;14.50;69.30;;;;;;5089371;28;20109;-58
2022/08/12 04:28:07;;;;;;;5.57;2.03;;;14.50;68.60;;;;;;5070159;28;20586;-59
2022/08/12 04:30:34;;;;;;;4.70;2.67;;;14.60;68.20;;;;;;5083696;28;20381;-59
2022/08/12 04:33:00;;;;;;;3.10;2.10;;;14.60;67.10;;;;;;5069970;28;20059;-57
2022/08/12 04:35:26;;;;;;;4.60;2.28;;;14.90;66.70;;;;;;5090470;28;20039;-59
2022/08/12 04:37:53;;;;;;;5.40;2.17;;;15.40;64.90;;;;;;5069068;28;20025;-58
2022/08/12 04:40:22;;;;;;;4.25;2.45;;;16.30;61.90;;;;;;5090324;28;20047;-56
2022/08/12 04:42:48;;;;;;;4.28;1.98;;;17.20;58.10;;;;;;5070044;28;20679;-60
2022/08/12 04:45:13;;;;;;;6.72;2.10;;;18.10;54.60;;;;;;5088109;28;20026;-59
2022/08/12 04:47:39;;;;;;;3.35;1.75;;;18.80;51.50;;;;;;5070592;28;20384;-58
2022/08/12 04:50:06;;;;;;;2.67;1.77;;;19.60;48.80;;;;;;5069190;28;20489;-59
2022/08/12 04:52:31;;;;;;;3.40;1.50;;;20.30;46.40;;;;;;5087765;28;20024;-59
2022/08/12 04:54:57;;;;;;;3.72;1.83;;;21.00;43.40;;;;;;5068638;28;20017;-59
2022/08/12 04:57:23;;;;;;;2.05;1.52;;;21.70;41.40;;;;;;5089561;28;20077;-59
2022/08/12 04:59:48;;;;;;;4.25;1.80;;;22.30;39.30;;;;;;5068785;28;20029;-60
2022/08/12 05:02:18;;;;;;;1.98;1.73;;;22.90;37.40;;;;;;5089268;28;20032;-58
2022/08/12 05:04:46;;;;;;;3.95;1.80;;;23.50;34.70;;;;;;5068369;28;20116;-59
2022/08/12 05:07:12;;;;;;;3.13;1.70;;;24.10;33.50;;;;;;5089608;28;20170;-58
2022/08/12 05:09:38;;;;;;;3.20;1.67;;;24.70;31.20;;;;;;5068572;28;20100;-58
2022/08/12 05:12:04;;;;;;;2.33;1.80;;;25.20;28.80;;;;;;5088182;28;20492;-59
2022/08/12 05:14:30;;;;;;;2.33;2.00;;;25.70;27.10;;;;;;5064108;28;20032;-59
2022/08/12 05:16:55;;;;;;;2.28;1.73;;;26.00;23.40;;;;;;5089189;28;20417;-59
2022/08/12 05:19:21;;;;;;;2.45;1.70;;;26.40;23.30;;;;;;5067048;28;20488;-58
2022/08/12 05:21:47;;;;;;;2.60;1.73;;;26.90;22.30;;;;;;5089061;28;20028;-57
2022/08/12 05:24:12;;;;;;;2.47;1.70;;;27.50;20.20;;;;;;5078327;28;20729;-56
2022/08/12 05:26:38;;;;;;;2.40;2.08;;;27.90;19.50;;;;;;5070059;28;20032;-58
2022/08/12 05:29:04;;;;;;;3.35;1.80;;;28.40;17.60;;;;;;5087074;28;20090;-58
2022/08/12 05:31:29;;;;;;;4.70;1.88;;;28.90;16.50;;;;;;5069708;28;20119;-58
2022/08/12 05:33:55;;;;;;;1.92;1.70;;;29.30;14.90;;;;;;5086884;28;20124;-58
2022/08/12 05:36:20;;;;;;;2.50;1.75;;;29.70;12.90;;;;;;5089806;28;20020;-57
2022/08/12 05:38:55;;;;;;;2.22;1.67;;;29.90;10.30;;;;;;5074109;28;20106;-58
2022/08/12 05:41:26;;;;;;;4.32;1.83;;;30.10;9.20;;;;;;5073220;28;20507;-58
2022/08/12 05:43:53;;;;;;;2.95;2.20;;;30.40;6.90;;;;;;5061276;28;20039;-58
2022/08/12 05:46:20;;;;;;;5.25;1.98;;;30.30;3.70;;;;;;5089294;28;20392;-57
2022/08/12 05:48:48;;;;;;;3.97;1.67;;;30.50;5.00;;;;;;5073346;28;20032;-58
2022/08/12 05:51:13;;;;;;;3.58;1.70;;;31.10;4.50;;;;;;5089820;28;20261;-58
2022/08/12 05:53:39;;;;;;;2.85;1.60;;;31.90;4.20;;;;;;5071717;28;20024;-58
2022/08/12 05:56:06;;;;;;;2.50;1.52;;;32.60;4.00;;;;;;5089648;28;20038;-57
2022/08/12 05:58:33;;;;;;;3.13;1.55;;;33.20;2.20;;;;;;5070986;28;20028;-57
2022/08/12 06:01:00;;;;;;;2.70;1.55;;;33.50;1.10;;;;;;5089856;28;20043;-58
2022/08/12 06:03:26;;;;;;;1.67;1.55;;;33.70;1.00;;;;;;5070036;28;20024;-59
2022/08/12 06:05:51;;;;;;;2.35;1.63;;;34.10;1.00;;;;;;5093472;28;20039;-59
2022/08/12 06:08:17;;;;;;;2.70;1.50;;;33.80;1.00;;;;;;5071678;28;20539;-59
2022/08/12 06:10:44;;;;;;;4.13;1.60;;;34.10;1.00;;;;;;5093511;28;20027;-59
2022/08/12 06:13:13;;;;;;;4.28;1.67;;;34.50;1.00;;;;;;5073650;28;20037;-59
2022/08/12 06:15:40;;;;;;;2.95;1.40;;;35.20;1.00;;;;;;5070768;28;20112;-59
2022/08/12 06:18:07;;;;;;;2.47;1.63;;;35.10;1.00;;;;;;5092669;28;20028;-59
2022/08/12 06:20:34;;;;;;;3.92;1.55;;;35.10;1.00;;;;;;5091213;28;20032;-59
2022/08/12 06:23:00;;;;;;;2.40;1.20;;;35.50;1.00;;;;;;5072928;28;20492;-58
2022/08/12 06:25:27;;;;;;;3.00;1.60;;;36.10;1.00;;;;;;5070422;28;20096;-59
2022/08/12 06:27:54;;;;;;;1.65;1.33;;;36.70;1.00;;;;;;5092618;28;20127;-59
2022/08/12 06:30:20;;;;;;;2.05;1.48;;;37.10;1.00;;;;;;5075940;28;20101;-59
2022/08/12 06:32:47;;;;;;;1.63;1.20;;;37.40;1.00;;;;;;5093075;28;20078;-59
2022/08/12 06:35:15;;;;;;;1.65;1.20;;;37.90;1.00;;;;;;5070816;28;20029;-58
2022/08/12 06:37:44;;;;;;;1.75;1.30;;;38.60;1.00;;;;;;5092434;28;20496;-59
2022/08/12 06:40:12;;;;;;;3.28;1.15;;;39.00;1.00;;;;;;5070556;28;20066;-60
2022/08/12 06:42:47;;;;;;;2.35;1.40;;;38.90;1.00;;;;;;5092149;28;20110;-59
2022/08/12 06:45:14;;;;;;;1.92;1.15;;;39.10;1.00;;;;;;5063656;28;20036;-59
2022/08/12 06:47:40;;;;;;;2.47;1.38;;;38.80;1.00;;;;;;5092144;28;20047;-59
2022/08/12 06:50:07;;;;;;;3.13;1.17;;;38.40;1.00;;;;;;5070936;28;20032;-59
2022/08/12 06:52:32;;;;;;;2.80;1.50;;;38.90;1.00;;;;;;5091571;28;20036;-59
2022/08/12 06:54:58;;;;;;;2.47;1.10;;;39.00;1.00;;;;;;5070798;28;20032;-59
2022/08/12 06:57:28;;;;;;;2.10;0.98;;;39.80;1.00;;;;;;5091698;28;20036;-59
2022/08/12 06:59:54;;;;;;;1.25;0.90;;;40.20;1.00;;;;;;5069025;28;20052;-59
2022/08/12 07:02:21;;;;;;;1.33;0.98;;;39.50;1.00;;;;;;5091544;28;20031;-59
2022/08/12 07:04:47;;;;;;;3.53;0.98;;;39.80;1.00;;;;;;5070695;28;20039;-59
2022/08/12 07:07:14;;;;;;;1.52;0.85;;;40.20;1.00;;;;;;5091567;28;20683;-59
2022/08/12 07:09:41;;;;;;;1.10;0.90;;;40.70;1.00;;;;;;5081654;28;20107;-59
2022/08/12 07:12:18;;;;;;;1.08;0.82;;;40.30;1.00;;;;;;5072423;28;20025;-59
2022/08/12 07:14:50;;;;;;;1.88;0.93;;;39.50;1.00;;;;;;5067304;28;20209;-58
2022/08/12 07:17:15;;;;;;;2.35;0.98;;;38.70;1.00;;;;;;5051146;28;20108;-59
2022/08/12 07:19:42;;;;;;;1.00;0.90;;;39.20;1.00;;;;;;5088702;28;20144;-59
2022/08/12 07:22:09;;;;;;;2.47;1.10;;;39.60;1.00;;;;;;5072203;28;20056;-59
2022/08/12 07:24:35;;;;;;;2.97;1.25;;;39.60;1.00;;;;;;5079602;28;20054;-59
2022/08/12 07:27:00;;;;;;;1.90;0.90;;;38.80;1.00;;;;;;5090966;28;20044;-59
2022/08/12 07:29:27;;;;;;;5.88;0.90;;;38.10;1.00;;;;;;5078696;28;20058;-59
2022/08/12 07:31:52;;;;;;;2.55;0.93;;;38.40;1.00;;;;;;5072475;28;20119;-59
2022/08/12 07:34:18;;;;;;;1.80;0.90;;;38.70;1.00;;;;;;5081738;28;20063;-58
2022/08/12 07:36:46;;;;;;;2.33;1.00;;;37.90;1.00;;;;;;5070171;28;20021;-59
2022/08/12 07:39:12;;;;;;;1.63;0.80;;;36.20;1.00;;;;;;5088069;28;20102;-58
2022/08/12 07:41:38;;;;;;;4.28;0.90;;;36.30;1.00;;;;;;5090104;28;20380;-59
2022/08/12 07:44:06;;;;;;;6.97;1.10;;;36.30;1.00;;;;;;5073782;28;20027;-59
2022/08/12 07:46:40;;;;;;;2.75;0.93;;;36.80;1.00;;;;;;5090281;28;20028;-59
2022/08/12 07:49:12;;;;;;;1.90;0.90;;;35.50;1.00;;;;;;5058483;28;20408;-59
2022/08/12 07:51:39;;;;;;;2.08;0.90;;;36.10;1.00;;;;;;5090756;28;20032;-59
2022/08/12 07:54:08;;;;;;;2.35;1.00;;;36.40;1.00;;;;;;5074134;28;20020;-59
2022/08/12 07:56:38;;;;;;;2.35;1.00;;;36.50;1.00;;;;;;5091018;28;20024;-59
2022/08/12 07:59:06;;;;;;;1.75;1.10;;;36.50;1.00;;;;;;5058662;28;20024;-59
2022/08/12 08:01:32;;;;;;;2.70;0.85;;;37.00;1.00;;;;;;5090830;28;20032;-59
2022/08/12 08:06:43;;;;;;;1.30;1.13;;;37.50;1.00;;;;;;5091341;28;20047;-60
2022/08/12 08:09:11;;;;;;;4.85;0.90;;;36.70;1.00;;;;;;5074052;28;20032;-58
2022/08/12 08:14:24;;;;;;;3.30;0.80;;;36.90;1.00;;;;;;5061634;28;20458;-57
2022/08/12 08:16:49;;;;;;;2.92;1.00;;;37.00;1.00;;;;;;5090295;28;20684;-59
2022/08/12 08:19:19;;;;;;;0.80;0.80;;;36.60;1.00;;;;;;5074516;28;20033;-59
2022/08/12 08:21:45;;;;;;;0.90;0.75;;;36.20;1.00;;;;;;5090461;28;20100;-59
2022/08/12 08:24:14;;;;;;;3.97;1.10;;;35.90;1.00;;;;;;5073721;28;20468;-59
2022/08/12 08:26:47;;;;;;;1.80;0.90;;;34.00;1.00;;;;;;5090486;28;20017;-60
2022/08/12 08:29:17;;;;;;;6.15;1.20;;;33.40;1.00;;;;;;5073955;28;20048;-59
2022/08/12 08:31:44;;;;;;;2.45;0.90;;;32.10;1.00;;;;;;5090417;28;20040;-59
2022/08/12 08:34:11;;;;;;;1.48;0.70;;;32.60;1.00;;;;;;5072739;28;20028;-59
2022/08/12 08:36:38;;;;;;;1.25;1.00;;;32.70;1.00;;;;;;5090534;28;20020;-59
2022/08/12 08:39:04;;;;;;;1.65;0.93;;;32.70;1.00;;;;;;5071950;28;20169;-59
2022/08/12 08:44:15;;;;;;;4.75;0.95;;;33.10;1.00;;;;;;5058058;28;20149;-59
2022/08/12 08:46:43;;;;;;;1.55;0.88;;;33.20;1.00;;;;;;5090081;28;20026;-59
2022/08/12 08:49:09;;;;;;;2.15;1.00;;;33.20;1.00;;;;;;5071939;28;20024;-59
2022/08/12 08:51:35;;;;;;;1.92;0.88;;;32.10;1.00;;;;;;5090038;28;20028;-57
2022/08/12 08:54:01;;;;;;;1.10;0.93;;;31.40;1.00;;;;;;5070995;28;20132;-57
2022/08/12 08:56:28;;;;;;;1.73;1.20;;;31.30;1.00;;;;;;5089836;28;20498;-58
2022/08/12 08:58:53;;;;;;;1.23;1.08;;;30.90;1.00;;;;;;5069525;28;20029;-57
2022/08/12 09:01:22;;;;;;;0.80;0.80;;;30.60;1.00;;;;;;5089787;28;20170;-55
2022/08/12 09:03:48;;;;;;;0.60;0.60;;;31.00;1.00;;;;;;5068218;28;20036;-55
2022/08/12 09:06:14;;;;;;;1.77;1.15;;;31.60;1.00;;;;;;5089797;28;20016;-56
2022/08/12 09:08:43;;;;;;;2.65;0.90;;;31.60;1.00;;;;;;5069892;28;20496;-57
2022/08/12 09:13:53;;;;;;;3.10;0.85;;;32.00;1.00;;;;;;5059826;28;20080;-56
2022/08/12 09:16:19;;;;;;;2.53;1.20;;;32.00;1.00;;;;;;5069442;28;20107;-57
2022/08/12 09:18:45;;;;;;;1.58;1.00;;;31.90;1.00;;;;;;5088793;28;20031;-57
2022/08/12 09:21:12;;;;;;;2.13;1.00;;;31.90;1.00;;;;;;5089708;28;20028;-55
2022/08/12 09:23:38;;;;;;;0.82;0.80;;;31.90;1.00;;;;;;5069502;28;20316;-56
2022/08/12 09:26:03;;;;;;;1.92;1.05;;;32.10;1.00;;;;;;5067714;28;20259;-55
2022/08/12 09:28:30;;;;;;;2.47;1.00;;;31.90;1.00;;;;;;5088544;28;20035;-57
2022/08/12 09:30:57;;;;;;;2.45;1.00;;;31.50;1.00;;;;;;5077050;28;20708;-54
2022/08/12 09:33:27;;;;;;;2.63;1.05;;;31.50;1.00;;;;;;5069309;28;20441;-56
2022/08/12 09:35:53;;;;;;;1.55;0.90;;;31.10;1.00;;;;;;5064486;28;20105;-58
2022/08/12 09:38:19;;;;;;;2.08;1.23;;;30.80;1.00;;;;;;5088287;28;20020;-55
2022/08/12 09:40:46;;;;;;;1.95;1.10;;;30.50;1.00;;;;;;5067326;28;20032;-55
2022/08/12 09:45:58;;;;;;;2.03;0.95;;;30.50;1.00;;;;;;5065109;28;20051;-57
2022/08/12 09:48:25;;;;;;;5.47;1.27;;;30.60;1.00;;;;;;5088166;28;20409;-53
2022/08/12 09:50:51;;;;;;;0.93;0.85;;;30.40;1.00;;;;;;5067530;28;20039;-55
2022/08/12 09:53:23;;;;;;;1.70;1.20;;;30.30;1.00;;;;;;5088368;28;20028;-56
2022/08/12 09:55:51;;;;;;;3.10;1.48;;;30.10;1.00;;;;;;5067242;28;20055;-54
2022/08/12 09:58:27;;;;;;;1.30;1.15;;;30.20;1.00;;;;;;5088688;28;20387;-56
2022/08/12 10:01:01;;;;;;;1.20;1.00;;;30.60;1.00;;;;;;5067162;28;20040;-57
2022/08/12 10:03:31;;;;;;;2.85;1.45;;;30.70;1.00;;;;;;5048619;28;20025;-56
2022/08/12 10:06:01;;;;;;;3.20;1.40;;;30.00;1.00;;;;;;5069153;28;20577;-53
2022/08/12 10:08:31;;;;;;;2.42;1.40;;;29.80;1.00;;;;;;5088296;28;20040;-56
2022/08/12 10:13:45;;;;;;;4.32;1.60;;;30.00;1.00;;;;;;5058082;28;20039;-56
2022/08/12 10:16:11;;;;;;;1.52;1.05;;;29.60;1.00;;;;;;5086903;28;20016;-58
2022/08/12 10:18:42;;;;;;;1.95;1.30;;;29.40;1.00;;;;;;5068747;28;20028;-56
2022/08/12 10:21:16;;;;;;;2.25;1.45;;;29.40;1.00;;;;;;5065519;28;20032;-57
2022/08/12 10:23:44;;;;;;;4.28;1.30;;;29.20;1.00;;;;;;5068500;28;20284;-57
2022/08/12 10:31:44;;;;;;;4.07;1.38;;;28.80;1.00;;;;;;5048309;28;20099;-56
2022/08/12 10:34:12;;;;;;;4.22;1.27;;;28.80;1.00;;;;;;5086190;28;20745;-56
2022/08/12 10:36:38;;;;;;;2.22;1.00;;;28.70;1.00;;;;;;5088885;28;20137;-57
2022/08/12 10:39:06;;;;;;;2.65;1.30;;;28.70;1.00;;;;;;5067155;28;20534;-56
2022/08/12 10:44:17;;;;;;;5.05;1.45;;;28.80;1.00;;;;;;5050331;28;20116;-54
2022/08/12 10:46:46;;;;;;;6.93;1.42;;;28.90;1.00;;;;;;5087410;28;20118;-55
2022/08/12 10:49:12;;;;;;;2.08;1.40;;;28.90;1.00;;;;;;5067814;28;20170;-57
2022/08/12 10:51:39;;;;;;;5.50;1.33;;;28.90;1.00;;;;;;5090349;28;20223;-58
2022/08/12 10:54:05;;;;;;;1.92;1.10;;;28.70;1.00;;;;;;5072354;28;20029;-57
2022/08/12 10:56:31;;;;;;;3.63;1.45;;;28.60;1.00;;;;;;5071998;28;20443;-58
2022/08/12 10:58:57;;;;;;;1.67;1.20;;;28.50;1.00;;;;;;5091660;28;20024;-57
2022/08/12 11:01:23;;;;;;;1.90;1.25;;;28.50;1.00;;;;;;5070645;28;20040;-56
2022/08/12 11:03:49;;;;;;;3.95;1.20;;;28.50;1.00;;;;;;5089901;28;20546;-56
2022/08/12 11:06:14;;;;;;;4.93;1.02;;;28.50;1.00;;;;;;5070356;28;20458;-57
2022/08/12 11:08:40;;;;;;;1.10;0.93;;;28.40;1.00;;;;;;5091326;28;20035;-58
2022/08/12 11:11:07;;;;;;;3.35;1.10;;;28.40;1.00;;;;;;5070347;28;20561;-57
2022/08/12 11:13:34;;;;;;;4.35;1.65;;;28.60;1.00;;;;;;5080093;28;20024;-56
2022/08/12 11:16:00;;;;;;;2.47;0.90;;;28.60;1.00;;;;;;5084965;28;20190;-56
2022/08/12 11:18:26;;;;;;;1.10;0.93;;;28.30;1.00;;;;;;5071877;28;20117;-56
2022/08/12 11:20:53;;;;;;;1.95;1.08;;;28.10;1.00;;;;;;5075411;28;20074;-56
2022/08/12 11:23:20;;;;;;;1.52;0.80;;;28.10;1.00;;;;;;5089719;28;20506;-55
2022/08/12 11:25:46;;;;;;;2.22;1.20;;;28.00;1.00;;;;;;5069954;28;20035;-57
2022/08/12 11:28:13;;;;;;;6.28;1.23;;;28.00;1.00;;;;;;5091125;28;20123;-57
2022/08/12 11:30:38;;;;;;;1.77;1.10;;;28.10;1.00;;;;;;5076907;28;20044;-57
2022/08/12 11:33:04;;;;;;;2.92;1.05;;;27.90;1.00;;;;;;5090310;28;20188;-58
2022/08/12 11:35:30;;;;;;;2.10;1.02;;;28.00;1.00;;;;;;5080463;28;20119;-58
2022/08/12 11:37:58;;;;;;;2.78;1.23;;;28.10;1.00;;;;;;5071728;28;20056;-58
2022/08/12 11:40:24;;;;;;;1.58;0.73;;;28.20;1.00;;;;;;5089052;28;20022;-57
2022/08/12 11:42:50;;;;;;;1.20;1.10;;;28.40;1.00;;;;;;5071802;28;20041;-55
2022/08/12 11:45:15;;;;;;;2.05;1.30;;;28.30;1.00;;;;;;5088595;28;20124;-58
2022/08/12 11:47:41;;;;;;;3.47;1.17;;;28.20;1.00;;;;;;5071329;28;20035;-57
2022/08/12 11:50:07;;;;;;;2.00;1.08;;;28.20;1.00;;;;;;5088476;28;20063;-56
2022/08/12 11:52:32;;;;;;;2.03;1.05;;;28.20;1.00;;;;;;5091141;28;20030;-58
2022/08/12 11:54:58;;;;;;;1.75;1.23;;;28.20;1.00;;;;;;5075138;28;20107;-55
2022/08/12 11:57:23;;;;;;;2.38;0.98;;;28.10;1.00;;;;;;5091081;28;20020;-58
2022/08/12 11:59:49;;;;;;;1.63;1.00;;;28.00;1.00;;;;;;5073549;28;20020;-56
2022/08/12 12:02:14;;;;;;;1.90;0.80;;;27.90;1.00;;;;;;5090431;28;20032;-59
2022/08/12 12:04:40;;;;;;;1.10;0.70;;;28.00;1.00;;;;;;5072547;28;20082;-57
2022/08/12 12:07:05;;;;;;;1.10;1.00;;;28.10;1.00;;;;;;5091281;28;20503;-56
2022/08/12 12:09:31;;;;;;;1.08;0.98;;;28.10;1.00;;;;;;5069613;28;20511;-52
2022/08/12 12:11:56;;;;;;;2.47;1.20;;;28.30;1.00;;;;;;5091193;28;20492;-56
2022/08/12 12:14:22;;;;;;;4.20;1.42;;;28.40;1.00;;;;;;5065488;28;20028;-54
2022/08/12 12:16:47;;;;;;;0.93;0.93;;;28.40;1.00;;;;;;5090942;28;20028;-51
2022/08/12 12:19:13;;;;;;;4.90;1.20;;;28.60;1.00;;;;;;5071075;28;20077;-53
2022/08/12 12:21:38;;;;;;;1.50;1.20;;;28.80;1.00;;;;;;5069396;28;20047;-52
2022/08/12 12:24:05;;;;;;;1.35;1.08;;;28.70;1.00;;;;;;5090665;28;20496;-53
2022/08/12 12:26:30;;;;;;;4.90;1.20;;;28.70;1.00;;;;;;5069655;28;20025;-51
2022/08/12 12:28:56;;;;;;;2.40;1.10;;;28.60;1.00;;;;;;5090635;28;20050;-53
2022/08/12 12:31:23;;;;;;;4.00;1.00;;;28.60;1.00;;;;;;5069547;28;20463;-55
2022/08/12 12:33:48;;;;;;;1.45;1.10;;;28.70;1.00;;;;;;5090344;28;20016;-53
2022/08/12 12:36:14;;;;;;;1.17;1.08;;;28.80;1.00;;;;;;5069515;28;20028;-53
2022/08/12 12:38:40;;;;;;;1.70;1.30;;;28.90;1.00;;;;;;5088909;28;20115;-55
2022/08/12 12:41:06;;;;;;;1.50;1.20;;;28.70;1.00;;;;;;5069425;28;20097;-54
2022/08/12 12:43:31;;;;;;;3.88;1.30;;;28.70;1.00;;;;;;5090368;28;20040;-54
2022/08/12 12:45:57;;;;;;;3.58;1.23;;;28.90;1.00;;;;;;5069326;28;20017;-53
2022/08/12 12:48:23;;;;;;;4.32;1.50;;;29.00;1.00;;;;;;5089900;28;20028;-53
2022/08/12 12:51:14;;;;;;;2.75;1.50;;;29.00;1.00;;;;;;5069522;28;20036;-54
2022/08/12 12:53:38;;;;;;;1.23;0.90;;;29.10;1.00;;;;;;5070920;28;20032;-56
2022/08/12 12:56:05;;;;;;;3.35;1.00;;;29.30;1.00;;;;;;5073798;28;20043;-56
2022/08/12 12:58:31;;;;;;;1.67;1.10;;;29.30;1.00;;;;;;5090061;28;20127;-52
2022/08/12 13:00:58;;;;;;;1.20;1.10;;;29.20;1.00;;;;;;5068957;28;20185;-54
2022/08/12 13:03:25;;;;;;;2.67;1.60;;;29.20;1.00;;;;;;5089867;28;20123;-53
2022/08/12 13:05:51;;;;;;;3.58;1.58;;;29.20;1.00;;;;;;5079581;28;20039;-53
2022/08/12 13:08:30;;;;;;;5.30;2.13;;;29.10;1.00;;;;;;5070161;28;20025;-54
2022/08/12 13:11:02;;;;;;;2.25;1.20;;;28.90;1.00;;;;;;5070953;28;20028;-53
2022/08/12 13:13:33;;;;;;;2.15;1.23;;;28.70;1.00;;;;;;5054847;28;20093;-53
2022/08/12 13:16:00;;;;;;;2.28;1.38;;;28.60;1.00;;;;;;5087198;28;20396;-55
2022/08/12 13:18:35;;;;;;;1.60;1.20;;;28.60;1.00;;;;;;5070398;28;20021;-55
2022/08/12 13:21:04;;;;;;;1.85;1.10;;;28.60;1.00;;;;;;5072644;28;20031;-55
2022/08/12 13:23:30;;;;;;;3.25;1.30;;;28.50;1.00;;;;;;5070256;28;20032;-54
2022/08/12 13:25:57;;;;;;;2.00;1.25;;;28.50;1.00;;;;;;5076484;28;20104;-55
2022/08/12 13:28:27;;;;;;;1.92;1.13;;;28.60;1.00;;;;;;5089506;28;20032;-54
2022/08/12 13:30:56;;;;;;;1.98;1.00;;;28.70;1.00;;;;;;5068990;28;20043;-54
2022/08/12 13:33:27;;;;;;;3.60;1.20;;;28.80;1.00;;;;;;5069316;28;20427;-54
2022/08/12 13:35:59;;;;;;;1.30;1.20;;;28.60;1.00;;;;;;5076990;28;20039;-54
2022/08/12 13:38:38;;;;;;;2.83;1.25;;;28.50;1.00;;;;;;5049633;28;20120;-55
2022/08/12 13:41:13;;;;;;;3.50;1.50;;;28.50;1.00;;;;;;5058712;28;20116;-53
2022/08/12 13:43:39;;;;;;;4.28;1.30;;;28.40;1.00;;;;;;5050251;28;20040;-52
2022/08/12 13:46:08;;;;;;;2.13;1.33;;;28.30;1.00;;;;;;5074719;28;20032;-53
2022/08/12 13:48:35;;;;;;;3.05;1.17;;;28.20;1.00;;;;;;5089602;28;20488;-53
2022/08/12 13:51:01;;;;;;;3.03;1.13;;;28.20;1.00;;;;;;5079225;28;20035;-55
2022/08/12 13:53:27;;;;;;;3.90;1.10;;;28.10;1.00;;;;;;5068930;28;20037;-55
2022/08/12 13:55:53;;;;;;;1.13;0.98;;;28.20;1.00;;;;;;5087248;28;20103;-53
2022/08/12 13:58:20;;;;;;;2.38;1.35;;;28.30;1.00;;;;;;5070070;28;20079;-55
2022/08/12 14:00:52;;;;;;;2.67;1.40;;;28.30;1.00;;;;;;5087301;28;20395;-54
2022/08/12 14:03:21;;;;;;;1.40;1.30;;;28.20;1.00;;;;;;5049661;28;20033;-56
2022/08/12 14:05:47;;;;;;;1.38;1.25;;;28.20;1.00;;;;;;5087510;28;20028;-53
2022/08/12 14:08:14;;;;;;;2.40;1.58;;;28.20;1.00;;;;;;5069927;28;20115;-55
2022/08/12 14:10:54;;;;;;;1.83;1.40;;;28.30;1.00;;;;;;5086211;28;20028;-55
2022/08/12 14:13:22;;;;;;;2.25;1.10;;;28.30;1.00;;;;;;5055143;28;20282;-53
2022/08/12 14:15:51;;;;;;;3.58;1.23;;;28.30;1.00;;;;;;5087968;28;20510;-55
2022/08/12 14:18:25;;;;;;;1.77;1.10;;;28.40;1.00;;;;;;5069429;28;20032;-53
2022/08/12 14:21:00;;;;;;;1.50;1.40;;;28.40;1.00;;;;;;5086893;28;20556;-54
2022/08/12 14:23:28;;;;;;;2.57;1.10;;;28.40;1.00;;;;;;5049198;28;20520;-55
2022/08/12 14:25:57;;;;;;;2.33;1.23;;;28.40;1.00;;;;;;5089241;28;20527;-55
2022/08/12 14:28:24;;;;;;;2.53;1.38;;;28.40;1.00;;;;;;5073079;28;20124;-54
2022/08/12 14:30:57;;;;;;;3.58;1.60;;;28.40;1.00;;;;;;5082015;28;20129;-54
2022/08/12 14:33:24;;;;;;;1.67;1.30;;;28.30;1.00;;;;;;5053099;28;20021;-55
2022/08/12 14:35:51;;;;;;;2.35;1.75;;;28.40;1.00;;;;;;5089920;28;20040;-54
2022/08/12 14:38:27;;;;;;;1.42;1.30;;;28.40;1.00;;;;;;5073340;28;20036;-55
2022/08/12 14:41:01;;;;;;;2.85;1.40;;;28.40;1.00;;;;;;5068446;28;20479;-54
2022/08/12 14:43:32;;;;;;;1.88;1.30;;;28.50;1.00;;;;;;5052836;28;20033;-54
2022/08/12 14:46:01;;;;;;;4.20;1.50;;;28.50;1.00;;;;;;5069258;28;20040;-54